sensor_id;sensor_type;location;lat;lon;timestamp;temperature;humidity
21849;DHT22;11089;49.852;19.700;2023-11-19T00:00:16;1.70;99.90
21849;DHT22;11089;49.852;19.700;2023-11-19T00:03:17;1.70;99.90
21849;DHT22;11089;49.852;19.700;2023-11-19T00:06:18;1.80;99.90
21849;DHT22;11089;49.852;19.700;2023-11-19T00:09:19;1.80;1.00
21849;DHT22;11089;49.852;19.700;2023-11-19T00:12:20;1.90;1.00
21849;DHT22;11089;49.852;19.700;2023-11-19T00:15:21;2.00;99.90
21849;DHT22;11089;49.852;19.700;2023-11-19T00:18:22;2.00;99.90
21849;DHT22;11089;49.852;19.700;2023-11-19T00:21:23;1.90;1.00
21849;DHT22;11089;49.852;19.700;2023-11-19T00:24:24;1.90;99.90
21849;DHT22;11089;49.852;19.700;2023-11-19T00:27:25;1.90;1.00
21849;DHT22;11089;49.852;19.700;2023-11-19T00:30:26;1.90;99.90
21849;DHT22;11089;49.852;19.700;2023-11-19T00:33:27;2.00;99.90
21849;DHT22;11089;49.852;19.700;2023-11-19T00:36:28;1.90;99.90
21849;DHT22;11089;49.852;19.700;2023-11-19T00:39:29;1.90;99.90
21849;DHT22;11089;49.852;19.700;2023-11-19T00:42:30;1.90;99.90
21849;DHT22;11089;49.852;19.700;2023-11-19T00:45:31;1.90;1.00
21849;DHT22;11089;49.852;19.700;2023-11-19T00:48:32;2.00;1.00
21849;DHT22;11089;49.852;19.700;2023-11-19T00:51:33;2.00;1.00
21849;DHT22;11089;49.852;19.700;2023-11-19T00:54:34;2.00;99.90
21849;DHT22;11089;49.852;19.700;2023-11-19T00:57:35;2.00;99.90
21849;DHT22;11089;49.852;19.700;2023-11-19T01:00:36;2.00;99.90
21849;DHT22;11089;49.852;19.700;2023-11-19T01:03:37;2.10;99.90
21849;DHT22;11089;49.852;19.700;2023-11-19T01:06:38;2.10;99.90
21849;DHT22;11089;49.852;19.700;2023-11-19T01:09:38;2.00;99.90
21849;DHT22;11089;49.852;19.700;2023-11-19T01:12:42;2.00;99.90
21849;DHT22;11089;49.852;19.700;2023-11-19T01:15:43;2.10;99.90
21849;DHT22;11089;49.852;19.700;2023-11-19T01:18:44;2.10;1.00
21849;DHT22;11089;49.852;19.700;2023-11-19T01:21:45;2.20;1.00
21849;DHT22;11089;49.852;19.700;2023-11-19T01:24:46;2.20;99.90
21849;DHT22;11089;49.852;19.700;2023-11-19T01:27:47;2.20;1.00
21849;DHT22;11089;49.852;19.700;2023-11-19T01:30:51;2.30;1.00
21849;DHT22;11089;49.852;19.700;2023-11-19T01:33:52;2.30;1.00
21849;DHT22;11089;49.852;19.700;2023-11-19T01:36:53;2.40;99.90
21849;DHT22;11089;49.852;19.700;2023-11-19T01:39:53;2.40;99.90
21849;DHT22;11089;49.852;19.700;2023-11-19T01:42:54;2.40;1.00
21849;DHT22;11089;49.852;19.700;2023-11-19T01:45:55;2.30;1.00
21849;DHT22;11089;49.852;19.700;2023-11-19T01:48:57;2.30;99.90
21849;DHT22;11089;49.852;19.700;2023-11-19T01:51:59;2.30;1.00
21849;DHT22;11089;49.852;19.700;2023-11-19T01:55:00;2.30;1.00
21849;DHT22;11089;49.852;19.700;2023-11-19T01:58:01;2.20;99.90
21849;DHT22;11089;49.852;19.700;2023-11-19T02:01:03;2.10;1.00
21849;DHT22;11089;49.852;19.700;2023-11-19T02:04:05;2.20;99.90
21849;DHT22;11089;49.852;19.700;2023-11-19T02:07:06;2.10;99.90
21849;DHT22;11089;49.852;19.700;2023-11-19T02:10:08;2.10;99.90
21849;DHT22;11089;49.852;19.700;2023-11-19T02:13:13;2.10;99.90
21849;DHT22;11089;49.852;19.700;2023-11-19T02:16:14;2.10;99.90
21849;DHT22;11089;49.852;19.700;2023-11-19T02:19:15;2.20;99.90
21849;DHT22;11089;49.852;19.700;2023-11-19T02:22:16;2.20;1.00
21849;DHT22;11089;49.852;19.700;2023-11-19T02:25:30;2.20;1.00
21849;DHT22;11089;49.852;19.700;2023-11-19T02:28:34;2.30;1.00
21849;DHT22;11089;49.852;19.700;2023-11-19T02:31:36;2.30;1.00
21849;DHT22;11089;49.852;19.700;2023-11-19T02:34:37;2.30;1.00
21849;DHT22;11089;49.852;19.700;2023-11-19T02:37:38;2.20;1.00
21849;DHT22;11089;49.852;19.700;2023-11-19T02:40:39;2.00;99.90
21849;DHT22;11089;49.852;19.700;2023-11-19T02:43:40;2.00;99.90
21849;DHT22;11089;49.852;19.700;2023-11-19T02:46:41;2.00;99.90
21849;DHT22;11089;49.852;19.700;2023-11-19T02:49:43;2.10;1.00
21849;DHT22;11089;49.852;19.700;2023-11-19T02:52:44;2.10;99.90
21849;DHT22;11089;49.852;19.700;2023-11-19T02:55:46;2.10;99.90
21849;DHT22;11089;49.852;19.700;2023-11-19T02:58:50;2.20;99.90
21849;DHT22;11089;49.852;19.700;2023-11-19T03:01:51;2.20;8.80
21849;DHT22;11089;49.852;19.700;2023-11-19T03:04:52;2.20;1.00
21849;DHT22;11089;49.852;19.700;2023-11-19T03:07:53;2.20;76.70
21849;DHT22;11089;49.852;19.700;2023-11-19T03:10:54;2.10;68.40
21849;DHT22;11089;49.852;19.700;2023-11-19T03:13:55;1.90;99.90
21849;DHT22;11089;49.852;19.700;2023-11-19T03:16:56;1.80;99.90
21849;DHT22;11089;49.852;19.700;2023-11-19T03:19:57;1.70;1.00
21849;DHT22;11089;49.852;19.700;2023-11-19T03:22:58;1.50;1.00
21849;DHT22;11089;49.852;19.700;2023-11-19T03:25:59;1.50;1.00
21849;DHT22;11089;49.852;19.700;2023-11-19T03:29:02;1.50;1.00
21849;DHT22;11089;49.852;19.700;2023-11-19T03:32:03;1.50;1.00
21849;DHT22;11089;49.852;19.700;2023-11-19T03:35:05;1.50;1.00
21849;DHT22;11089;49.852;19.700;2023-11-19T03:38:09;1.50;1.00
21849;DHT22;11089;49.852;19.700;2023-11-19T03:41:11;1.50;1.00
21849;DHT22;11089;49.852;19.700;2023-11-19T03:44:13;1.40;1.00
21849;DHT22;11089;49.852;19.700;2023-11-19T03:47:13;1.40;1.00
21849;DHT22;11089;49.852;19.700;2023-11-19T03:50:14;1.40;1.00
21849;DHT22;11089;49.852;19.700;2023-11-19T03:53:16;1.40;1.00
21849;DHT22;11089;49.852;19.700;2023-11-19T03:56:17;1.30;99.90
21849;DHT22;11089;49.852;19.700;2023-11-19T03:59:18;1.30;1.00
21849;DHT22;11089;49.852;19.700;2023-11-19T04:02:21;1.20;1.00
21849;DHT22;11089;49.852;19.700;2023-11-19T04:05:22;1.10;1.00
21849;DHT22;11089;49.852;19.700;2023-11-19T04:08:23;1.00;99.90
21849;DHT22;11089;49.852;19.700;2023-11-19T04:11:23;1.10;99.90
21849;DHT22;11089;49.852;19.700;2023-11-19T04:14:25;1.00;99.90
21849;DHT22;11089;49.852;19.700;2023-11-19T04:17:25;1.10;99.90
21849;DHT22;11089;49.852;19.700;2023-11-19T04:20:26;1.10;99.90
21849;DHT22;11089;49.852;19.700;2023-11-19T04:23:27;1.10;29.90
21849;DHT22;11089;49.852;19.700;2023-11-19T04:26:28;1.10;1.00
21849;DHT22;11089;49.852;19.700;2023-11-19T04:29:30;1.00;1.00
21849;DHT22;11089;49.852;19.700;2023-11-19T04:32:31;1.00;99.90
21849;DHT22;11089;49.852;19.700;2023-11-19T04:35:32;0.90;99.90
21849;DHT22;11089;49.852;19.700;2023-11-19T04:38:33;0.90;99.90
21849;DHT22;11089;49.852;19.700;2023-11-19T04:41:33;1.00;99.90
21849;DHT22;11089;49.852;19.700;2023-11-19T04:44:34;1.00;99.90
21849;DHT22;11089;49.852;19.700;2023-11-19T04:47:36;0.90;99.90
21849;DHT22;11089;49.852;19.700;2023-11-19T04:50:37;1.00;99.90
21849;DHT22;11089;49.852;19.700;2023-11-19T04:53:38;0.90;97.20
21849;DHT22;11089;49.852;19.700;2023-11-19T04:56:39;0.80;62.40
21849;DHT22;11089;49.852;19.700;2023-11-19T04:59:40;0.70;99.90
21849;DHT22;11089;49.852;19.700;2023-11-19T05:02:42;0.80;99.90
21849;DHT22;11089;49.852;19.700;2023-11-19T05:05:42;0.70;99.90
21849;DHT22;11089;49.852;19.700;2023-11-19T05:08:44;0.60;99.90
21849;DHT22;11089;49.852;19.700;2023-11-19T05:11:45;0.70;99.90
21849;DHT22;11089;49.852;19.700;2023-11-19T05:14:46;0.80;99.90
21849;DHT22;11089;49.852;19.700;2023-11-19T05:17:50;0.80;99.90
21849;DHT22;11089;49.852;19.700;2023-11-19T05:20:50;0.80;99.90
21849;DHT22;11089;49.852;19.700;2023-11-19T05:23:51;0.70;99.90
21849;DHT22;11089;49.852;19.700;2023-11-19T05:26:52;0.80;99.90
21849;DHT22;11089;49.852;19.700;2023-11-19T05:29:53;0.90;99.90
21849;DHT22;11089;49.852;19.700;2023-11-19T05:32:54;0.90;99.90
21849;DHT22;11089;49.852;19.700;2023-11-19T05:35:55;0.80;99.90
21849;DHT22;11089;49.852;19.700;2023-11-19T05:38:56;0.80;99.90
21849;DHT22;11089;49.852;19.700;2023-11-19T05:41:56;0.80;99.90
21849;DHT22;11089;49.852;19.700;2023-11-19T05:44:57;0.80;99.90
21849;DHT22;11089;49.852;19.700;2023-11-19T05:47:58;0.80;99.90
21849;DHT22;11089;49.852;19.700;2023-11-19T05:50:59;0.90;99.90
21849;DHT22;11089;49.852;19.700;2023-11-19T05:54:00;0.80;99.90
21849;DHT22;11089;49.852;19.700;2023-11-19T05:57:01;1.00;99.90
21849;DHT22;11089;49.852;19.700;2023-11-19T06:00:03;1.00;99.90
21849;DHT22;11089;49.852;19.700;2023-11-19T06:03:10;1.00;99.90
21849;DHT22;11089;49.852;19.700;2023-11-19T06:06:10;1.10;99.90
21849;DHT22;11089;49.852;19.700;2023-11-19T06:09:12;1.00;99.90
21849;DHT22;11089;49.852;19.700;2023-11-19T06:12:13;0.80;99.90
21849;DHT22;11089;49.852;19.700;2023-11-19T06:15:14;0.70;99.90
21849;DHT22;11089;49.852;19.700;2023-11-19T06:18:15;0.80;99.90
21849;DHT22;11089;49.852;19.700;2023-11-19T06:21:16;0.90;99.90
21849;DHT22;11089;49.852;19.700;2023-11-19T06:24:17;0.90;99.90
21849;DHT22;11089;49.852;19.700;2023-11-19T06:27:18;1.00;99.90
21849;DHT22;11089;49.852;19.700;2023-11-19T06:30:20;1.10;99.90
21849;DHT22;11089;49.852;19.700;2023-11-19T06:33:21;1.00;99.90
21849;DHT22;11089;49.852;19.700;2023-11-19T06:36:22;1.00;99.90
21849;DHT22;11089;49.852;19.700;2023-11-19T06:39:23;1.10;33.40
21849;DHT22;11089;49.852;19.700;2023-11-19T06:42:24;1.10;78.60
21849;DHT22;11089;49.852;19.700;2023-11-19T06:45:25;1.10;1.00
21849;DHT22;11089;49.852;19.700;2023-11-19T06:48:26;1.20;1.00
21849;DHT22;11089;49.852;19.700;2023-11-19T06:51:26;1.20;1.00
21849;DHT22;11089;49.852;19.700;2023-11-19T06:54:27;1.20;99.90
21849;DHT22;11089;49.852;19.700;2023-11-19T06:57:28;1.30;76.90
21849;DHT22;11089;49.852;19.700;2023-11-19T07:00:30;1.30;99.90
21849;DHT22;11089;49.852;19.700;2023-11-19T07:03:35;1.40;99.90
21849;DHT22;11089;49.852;19.700;2023-11-19T07:06:35;1.40;1.00
21849;DHT22;11089;49.852;19.700;2023-11-19T07:09:36;1.50;1.00
21849;DHT22;11089;49.852;19.700;2023-11-19T07:12:38;1.60;1.00
21849;DHT22;11089;49.852;19.700;2023-11-19T07:15:39;1.60;1.00
21849;DHT22;11089;49.852;19.700;2023-11-19T07:18:40;1.60;99.90
21849;DHT22;11089;49.852;19.700;2023-11-19T07:21:43;1.60;99.90
21849;DHT22;11089;49.852;19.700;2023-11-19T07:24:47;1.70;1.00
21849;DHT22;11089;49.852;19.700;2023-11-19T07:27:48;1.70;1.00
21849;DHT22;11089;49.852;19.700;2023-11-19T07:30:49;1.70;93.20
21849;DHT22;11089;49.852;19.700;2023-11-19T07:33:50;1.70;25.10
21849;DHT22;11089;49.852;19.700;2023-11-19T07:36:52;1.80;1.00
21849;DHT22;11089;49.852;19.700;2023-11-19T07:39:53;1.80;1.00
21849;DHT22;11089;49.852;19.700;2023-11-19T07:42:54;1.90;99.90
21849;DHT22;11089;49.852;19.700;2023-11-19T07:45:55;2.00;1.00
21849;DHT22;11089;49.852;19.700;2023-11-19T07:48:55;2.00;1.00
21849;DHT22;11089;49.852;19.700;2023-11-19T07:51:56;2.00;99.90
21849;DHT22;11089;49.852;19.700;2023-11-19T07:54:57;2.00;1.00
21849;DHT22;11089;49.852;19.700;2023-11-19T07:57:58;1.90;1.00
21849;DHT22;11089;49.852;19.700;2023-11-19T08:01:00;2.00;1.00
21849;DHT22;11089;49.852;19.700;2023-11-19T08:04:02;2.10;1.00
21849;DHT22;11089;49.852;19.700;2023-11-19T08:07:03;2.10;1.00
21849;DHT22;11089;49.852;19.700;2023-11-19T08:10:05;2.20;99.90
21849;DHT22;11089;49.852;19.700;2023-11-19T08:13:06;2.30;99.90
21849;DHT22;11089;49.852;19.700;2023-11-19T08:16:08;2.40;1.00
21849;DHT22;11089;49.852;19.700;2023-11-19T08:19:10;2.40;84.20
21849;DHT22;11089;49.852;19.700;2023-11-19T08:22:11;2.50;99.90
21849;DHT22;11089;49.852;19.700;2023-11-19T08:25:12;2.50;1.00
21849;DHT22;11089;49.852;19.700;2023-11-19T08:28:13;2.40;99.90
21849;DHT22;11089;49.852;19.700;2023-11-19T08:31:14;2.40;1.00
21849;DHT22;11089;49.852;19.700;2023-11-19T08:34:15;2.50;1.00
21849;DHT22;11089;49.852;19.700;2023-11-19T08:37:16;2.70;1.00
21849;DHT22;11089;49.852;19.700;2023-11-19T08:40:21;2.80;99.90
21849;DHT22;11089;49.852;19.700;2023-11-19T08:43:22;2.70;99.90
21849;DHT22;11089;49.852;19.700;2023-11-19T08:46:24;2.90;1.00
21849;DHT22;11089;49.852;19.700;2023-11-19T08:49:26;2.90;1.00
21849;DHT22;11089;49.852;19.700;2023-11-19T08:52:27;2.90;1.00
21849;DHT22;11089;49.852;19.700;2023-11-19T08:55:28;2.90;1.00
21849;DHT22;11089;49.852;19.700;2023-11-19T08:58:29;2.80;99.90
21849;DHT22;11089;49.852;19.700;2023-11-19T09:01:31;2.80;1.00
21849;DHT22;11089;49.852;19.700;2023-11-19T09:04:32;2.80;1.00
21849;DHT22;11089;49.852;19.700;2023-11-19T09:07:33;2.70;1.00
21849;DHT22;11089;49.852;19.700;2023-11-19T09:10:34;2.60;1.00
21849;DHT22;11089;49.852;19.700;2023-11-19T09:13:35;2.50;99.90
21849;DHT22;11089;49.852;19.700;2023-11-19T09:16:36;2.60;85.90
21849;DHT22;11089;49.852;19.700;2023-11-19T09:19:37;2.50;1.00
21849;DHT22;11089;49.852;19.700;2023-11-19T09:22:38;2.50;99.90
21849;DHT22;11089;49.852;19.700;2023-11-19T09:25:39;2.60;1.00
21849;DHT22;11089;49.852;19.700;2023-11-19T09:28:40;2.60;1.00
21849;DHT22;11089;49.852;19.700;2023-11-19T09:31:41;2.70;1.00
21849;DHT22;11089;49.852;19.700;2023-11-19T09:34:42;2.70;1.00
21849;DHT22;11089;49.852;19.700;2023-11-19T09:37:43;2.80;47.50
21849;DHT22;11089;49.852;19.700;2023-11-19T09:40:44;2.80;1.00
21849;DHT22;11089;49.852;19.700;2023-11-19T09:43:45;2.90;1.00
21849;DHT22;11089;49.852;19.700;2023-11-19T09:46:46;3.00;26.20
21849;DHT22;11089;49.852;19.700;2023-11-19T09:49:49;2.90;1.00
21849;DHT22;11089;49.852;19.700;2023-11-19T09:52:51;2.90;1.80
21849;DHT22;11089;49.852;19.700;2023-11-19T09:55:53;3.00;1.00
21849;DHT22;11089;49.852;19.700;2023-11-19T09:58:54;2.90;1.00
21849;DHT22;11089;49.852;19.700;2023-11-19T10:01:56;3.00;1.00
21849;DHT22;11089;49.852;19.700;2023-11-19T10:04:59;3.30;99.90
21849;DHT22;11089;49.852;19.700;2023-11-19T10:08:01;3.40;1.00
21849;DHT22;11089;49.852;19.700;2023-11-19T10:11:03;3.40;99.90
21849;DHT22;11089;49.852;19.700;2023-11-19T10:14:05;3.40;99.90
21849;DHT22;11089;49.852;19.700;2023-11-19T10:17:07;3.40;1.00
21849;DHT22;11089;49.852;19.700;2023-11-19T10:20:09;3.50;1.00
21849;DHT22;11089;49.852;19.700;2023-11-19T10:23:11;3.50;1.00
21849;DHT22;11089;49.852;19.700;2023-11-19T10:26:12;3.60;99.90
21849;DHT22;11089;49.852;19.700;2023-11-19T10:29:13;3.70;1.00
21849;DHT22;11089;49.852;19.700;2023-11-19T10:32:15;3.60;1.00
21849;DHT22;11089;49.852;19.700;2023-11-19T10:35:16;3.70;1.00
21849;DHT22;11089;49.852;19.700;2023-11-19T10:38:17;3.60;99.90
21849;DHT22;11089;49.852;19.700;2023-11-19T10:41:28;3.60;84.00
21849;DHT22;11089;49.852;19.700;2023-11-19T10:44:34;3.70;44.20
21849;DHT22;11089;49.852;19.700;2023-11-19T10:47:37;3.90;99.90
21849;DHT22;11089;49.852;19.700;2023-11-19T10:50:41;4.00;99.90
21849;DHT22;11089;49.852;19.700;2023-11-19T10:53:43;4.10;99.90
21849;DHT22;11089;49.852;19.700;2023-11-19T10:56:50;4.10;1.00
21849;DHT22;11089;49.852;19.700;2023-11-19T11:00:00;4.00;99.90
21849;DHT22;11089;49.852;19.700;2023-11-19T11:03:02;4.00;1.00
21849;DHT22;11089;49.852;19.700;2023-11-19T11:06:06;3.90;99.90
21849;DHT22;11089;49.852;19.700;2023-11-19T11:09:09;4.00;1.00
21849;DHT22;11089;49.852;19.700;2023-11-19T11:12:13;4.00;1.00
21849;DHT22;11089;49.852;19.700;2023-11-19T11:15:14;4.10;1.00
21849;DHT22;11089;49.852;19.700;2023-11-19T11:18:17;4.10;99.90
21849;DHT22;11089;49.852;19.700;2023-11-19T11:21:22;4.00;1.00
21849;DHT22;11089;49.852;19.700;2023-11-19T11:24:59;4.00;1.00
21849;DHT22;11089;49.852;19.700;2023-11-19T11:37:43;4.10;1.00
21849;DHT22;11089;49.852;19.700;2023-11-19T11:41:17;4.10;1.00
21849;DHT22;11089;49.852;19.700;2023-11-19T11:44:59;4.10;99.90
21849;DHT22;11089;49.852;19.700;2023-11-19T11:48:15;3.90;1.00
21849;DHT22;11089;49.852;19.700;2023-11-19T11:51:18;4.00;1.00
21849;DHT22;11089;49.852;19.700;2023-11-19T11:57:20;3.90;1.00
21849;DHT22;11089;49.852;19.700;2023-11-19T12:00:31;3.90;1.00
21849;DHT22;11089;49.852;19.700;2023-11-19T12:03:33;3.90;1.00
21849;DHT22;11089;49.852;19.700;2023-11-19T12:06:36;3.80;99.90
21849;DHT22;11089;49.852;19.700;2023-11-19T12:09:39;3.80;99.90
21849;DHT22;11089;49.852;19.700;2023-11-19T12:12:40;3.60;99.90
21849;DHT22;11089;49.852;19.700;2023-11-19T12:19:03;3.40;99.90
21849;DHT22;11089;49.852;19.700;2023-11-19T12:22:10;3.40;1.00
21849;DHT22;11089;49.852;19.700;2023-11-19T12:25:12;3.30;1.00
21849;DHT22;11089;49.852;19.700;2023-11-19T12:28:14;3.20;1.00
21849;DHT22;11089;49.852;19.700;2023-11-19T12:31:17;3.10;99.90
21849;DHT22;11089;49.852;19.700;2023-11-19T12:34:19;2.90;1.00
21849;DHT22;11089;49.852;19.700;2023-11-19T12:37:24;2.80;1.00
21849;DHT22;11089;49.852;19.700;2023-11-19T12:40:25;2.70;99.90
21849;DHT22;11089;49.852;19.700;2023-11-19T12:43:26;2.70;1.00
21849;DHT22;11089;49.852;19.700;2023-11-19T12:46:27;2.70;99.90
21849;DHT22;11089;49.852;19.700;2023-11-19T12:49:28;2.70;99.90
21849;DHT22;11089;49.852;19.700;2023-11-19T12:52:29;2.80;16.20
21849;DHT22;11089;49.852;19.700;2023-11-19T12:55:30;2.80;1.00
21849;DHT22;11089;49.852;19.700;2023-11-19T12:58:35;2.80;1.00
21849;DHT22;11089;49.852;19.700;2023-11-19T13:01:36;2.70;1.00
21849;DHT22;11089;49.852;19.700;2023-11-19T13:04:39;2.80;1.00
21849;DHT22;11089;49.852;19.700;2023-11-19T13:07:39;2.70;99.90
21849;DHT22;11089;49.852;19.700;2023-11-19T13:10:51;2.80;1.00
21849;DHT22;11089;49.852;19.700;2023-11-19T13:13:57;2.90;1.00
21849;DHT22;11089;49.852;19.700;2023-11-19T13:16:59;3.00;1.00
21849;DHT22;11089;49.852;19.700;2023-11-19T13:20:00;3.00;1.00
21849;DHT22;11089;49.852;19.700;2023-11-19T13:23:04;3.00;1.00
21849;DHT22;11089;49.852;19.700;2023-11-19T13:26:05;3.00;99.90
21849;DHT22;11089;49.852;19.700;2023-11-19T13:29:06;3.00;1.00
21849;DHT22;11089;49.852;19.700;2023-11-19T13:32:07;3.10;1.00
21849;DHT22;11089;49.852;19.700;2023-11-19T13:35:08;3.00;99.90
21849;DHT22;11089;49.852;19.700;2023-11-19T13:38:09;3.10;1.00
21849;DHT22;11089;49.852;19.700;2023-11-19T13:41:10;3.10;99.90
21849;DHT22;11089;49.852;19.700;2023-11-19T13:44:12;3.20;1.00
21849;DHT22;11089;49.852;19.700;2023-11-19T13:47:13;3.20;1.00
21849;DHT22;11089;49.852;19.700;2023-11-19T13:50:15;3.30;78.40
21849;DHT22;11089;49.852;19.700;2023-11-19T13:53:17;3.30;99.90
21849;DHT22;11089;49.852;19.700;2023-11-19T13:56:18;3.40;99.90
21849;DHT22;11089;49.852;19.700;2023-11-19T13:59:19;3.40;99.90
21849;DHT22;11089;49.852;19.700;2023-11-19T14:02:19;3.50;99.90
21849;DHT22;11089;49.852;19.700;2023-11-19T14:05:20;3.50;99.90
21849;DHT22;11089;49.852;19.700;2023-11-19T14:08:21;3.50;99.90
21849;DHT22;11089;49.852;19.700;2023-11-19T14:11:22;3.50;99.90
21849;DHT22;11089;49.852;19.700;2023-11-19T14:14:23;3.50;99.90
21849;DHT22;11089;49.852;19.700;2023-11-19T14:17:24;3.60;99.90
21849;DHT22;11089;49.852;19.700;2023-11-19T14:20:25;3.60;99.90
21849;DHT22;11089;49.852;19.700;2023-11-19T14:23:26;3.60;99.90
21849;DHT22;11089;49.852;19.700;2023-11-19T14:26:28;3.60;99.90
21849;DHT22;11089;49.852;19.700;2023-11-19T14:29:29;3.70;99.90
21849;DHT22;11089;49.852;19.700;2023-11-19T14:32:31;3.70;99.90
21849;DHT22;11089;49.852;19.700;2023-11-19T14:35:32;3.70;99.90
21849;DHT22;11089;49.852;19.700;2023-11-19T14:38:34;3.70;99.90
21849;DHT22;11089;49.852;19.700;2023-11-19T14:41:35;3.80;99.90
21849;DHT22;11089;49.852;19.700;2023-11-19T14:44:35;3.80;99.90
21849;DHT22;11089;49.852;19.700;2023-11-19T14:47:36;3.80;99.90
21849;DHT22;11089;49.852;19.700;2023-11-19T14:50:37;3.90;99.90
21849;DHT22;11089;49.852;19.700;2023-11-19T14:53:38;3.90;99.90
21849;DHT22;11089;49.852;19.700;2023-11-19T14:56:39;3.90;99.90
21849;DHT22;11089;49.852;19.700;2023-11-19T14:59:40;3.90;99.90
21849;DHT22;11089;49.852;19.700;2023-11-19T15:02:42;4.00;99.90
21849;DHT22;11089;49.852;19.700;2023-11-19T15:05:43;4.00;98.80
21849;DHT22;11089;49.852;19.700;2023-11-19T15:08:44;4.00;1.00
21849;DHT22;11089;49.852;19.700;2023-11-19T15:11:45;4.10;91.00
21849;DHT22;11089;49.852;19.700;2023-11-19T15:14:46;4.00;54.80
21849;DHT22;11089;49.852;19.700;2023-11-19T15:17:47;4.10;1.00
21849;DHT22;11089;49.852;19.700;2023-11-19T15:20:48;4.10;1.00
21849;DHT22;11089;49.852;19.700;2023-11-19T15:23:49;4.20;1.00
21849;DHT22;11089;49.852;19.700;2023-11-19T15:26:50;4.20;1.00
21849;DHT22;11089;49.852;19.700;2023-11-19T15:29:51;4.20;1.00
21849;DHT22;11089;49.852;19.700;2023-11-19T15:32:53;4.20;99.90
21849;DHT22;11089;49.852;19.700;2023-11-19T15:35:55;4.30;99.90
21849;DHT22;11089;49.852;19.700;2023-11-19T15:38:56;4.40;1.00
21849;DHT22;11089;49.852;19.700;2023-11-19T15:41:57;4.40;1.00
21849;DHT22;11089;49.852;19.700;2023-11-19T15:45:00;4.40;1.00
21849;DHT22;11089;49.852;19.700;2023-11-19T15:48:00;4.50;1.00
21849;DHT22;11089;49.852;19.700;2023-11-19T15:51:01;4.50;99.90
21849;DHT22;11089;49.852;19.700;2023-11-19T15:54:03;4.50;1.00
21849;DHT22;11089;49.852;19.700;2023-11-19T15:57:06;4.50;99.90
21849;DHT22;11089;49.852;19.700;2023-11-19T16:00:07;4.50;1.00
21849;DHT22;11089;49.852;19.700;2023-11-19T16:03:11;4.50;1.00
21849;DHT22;11089;49.852;19.700;2023-11-19T16:06:13;4.50;1.00
21849;DHT22;11089;49.852;19.700;2023-11-19T16:09:13;4.50;1.00
21849;DHT22;11089;49.852;19.700;2023-11-19T16:12:15;4.50;1.00
21849;DHT22;11089;49.852;19.700;2023-11-19T16:15:16;4.50;1.70
21849;DHT22;11089;49.852;19.700;2023-11-19T16:18:17;4.60;1.00
21849;DHT22;11089;49.852;19.700;2023-11-19T16:21:18;4.60;1.00
21849;DHT22;11089;49.852;19.700;2023-11-19T16:24:18;4.60;1.00
21849;DHT22;11089;49.852;19.700;2023-11-19T16:27:19;4.60;1.00
21849;DHT22;11089;49.852;19.700;2023-11-19T16:30:21;4.70;1.00
21849;DHT22;11089;49.852;19.700;2023-11-19T16:33:22;4.70;99.90
21849;DHT22;11089;49.852;19.700;2023-11-19T16:36:23;4.70;99.90
21849;DHT22;11089;49.852;19.700;2023-11-19T16:39:24;4.70;99.90
21849;DHT22;11089;49.852;19.700;2023-11-19T16:42:25;4.70;99.90
21849;DHT22;11089;49.852;19.700;2023-11-19T16:45:26;4.80;1.00
21849;DHT22;11089;49.852;19.700;2023-11-19T16:48:27;4.80;81.80
21849;DHT22;11089;49.852;19.700;2023-11-19T16:51:28;4.90;1.00
21849;DHT22;11089;49.852;19.700;2023-11-19T16:54:32;4.90;1.00
21849;DHT22;11089;49.852;19.700;2023-11-19T16:57:38;4.90;1.00
21849;DHT22;11089;49.852;19.700;2023-11-19T17:00:39;4.90;99.90
21849;DHT22;11089;49.852;19.700;2023-11-19T17:03:40;4.90;1.00
21849;DHT22;11089;49.852;19.700;2023-11-19T17:06:41;4.90;1.00
21849;DHT22;11089;49.852;19.700;2023-11-19T17:09:43;5.00;1.00
21849;DHT22;11089;49.852;19.700;2023-11-19T17:12:44;5.00;99.90
21849;DHT22;11089;49.852;19.700;2023-11-19T17:15:45;5.00;1.00
21849;DHT22;11089;49.852;19.700;2023-11-19T17:18:46;5.00;99.90
21849;DHT22;11089;49.852;19.700;2023-11-19T17:21:47;5.10;1.00
21849;DHT22;11089;49.852;19.700;2023-11-19T17:24:47;5.10;1.00
21849;DHT22;11089;49.852;19.700;2023-11-19T17:27:48;5.20;99.90
21849;DHT22;11089;49.852;19.700;2023-11-19T17:30:50;5.20;99.90
21849;DHT22;11089;49.852;19.700;2023-11-19T17:33:51;5.20;99.90
21849;DHT22;11089;49.852;19.700;2023-11-19T17:36:52;5.20;1.00
21849;DHT22;11089;49.852;19.700;2023-11-19T17:39:53;5.30;1.00
21849;DHT22;11089;49.852;19.700;2023-11-19T17:42:54;5.20;1.00
21849;DHT22;11089;49.852;19.700;2023-11-19T17:45:55;5.30;99.90
21849;DHT22;11089;49.852;19.700;2023-11-19T17:49:00;5.30;99.90
21849;DHT22;11089;49.852;19.700;2023-11-19T17:52:02;5.40;1.00
21849;DHT22;11089;49.852;19.700;2023-11-19T17:55:04;5.40;1.00
21849;DHT22;11089;49.852;19.700;2023-11-19T17:58:05;5.40;1.00
21849;DHT22;11089;49.852;19.700;2023-11-19T18:01:07;5.40;1.00
21849;DHT22;11089;49.852;19.700;2023-11-19T18:04:08;5.40;1.00
21849;DHT22;11089;49.852;19.700;2023-11-19T18:07:09;5.50;1.00
21849;DHT22;11089;49.852;19.700;2023-11-19T18:10:11;5.40;99.90
21849;DHT22;11089;49.852;19.700;2023-11-19T18:13:12;5.40;1.00
21849;DHT22;11089;49.852;19.700;2023-11-19T18:16:14;5.40;1.00
21849;DHT22;11089;49.852;19.700;2023-11-19T18:19:17;5.40;1.00
21849;DHT22;11089;49.852;19.700;2023-11-19T18:22:19;5.40;1.00
21849;DHT22;11089;49.852;19.700;2023-11-19T18:25:20;5.40;1.00
21849;DHT22;11089;49.852;19.700;2023-11-19T18:28:21;5.40;1.00
21849;DHT22;11089;49.852;19.700;2023-11-19T18:31:25;5.50;1.00
21849;DHT22;11089;49.852;19.700;2023-11-19T18:34:26;5.50;99.90
21849;DHT22;11089;49.852;19.700;2023-11-19T18:37:27;5.40;99.90
21849;DHT22;11089;49.852;19.700;2023-11-19T18:40:29;5.40;99.90
21849;DHT22;11089;49.852;19.700;2023-11-19T18:43:30;5.50;99.90
21849;DHT22;11089;49.852;19.700;2023-11-19T18:46:31;5.50;99.90
21849;DHT22;11089;49.852;19.700;2023-11-19T18:49:32;5.50;1.00
21849;DHT22;11089;49.852;19.700;2023-11-19T18:52:33;5.60;99.90
21849;DHT22;11089;49.852;19.700;2023-11-19T18:55:34;5.60;99.90
21849;DHT22;11089;49.852;19.700;2023-11-19T18:58:35;5.60;99.90
21849;DHT22;11089;49.852;19.700;2023-11-19T19:01:36;5.60;1.00
21849;DHT22;11089;49.852;19.700;2023-11-19T19:04:38;5.60;1.00
21849;DHT22;11089;49.852;19.700;2023-11-19T19:07:38;5.60;1.00
21849;DHT22;11089;49.852;19.700;2023-11-19T19:10:40;5.70;1.00
21849;DHT22;11089;49.852;19.700;2023-11-19T19:13:41;5.70;1.00
21849;DHT22;11089;49.852;19.700;2023-11-19T19:16:42;5.70;99.90
21849;DHT22;11089;49.852;19.700;2023-11-19T19:19:43;5.60;1.00
21849;DHT22;11089;49.852;19.700;2023-11-19T19:22:44;5.60;1.00
21849;DHT22;11089;49.852;19.700;2023-11-19T19:25:46;5.60;99.90
21849;DHT22;11089;49.852;19.700;2023-11-19T19:28:47;5.60;1.00
21849;DHT22;11089;49.852;19.700;2023-11-19T19:31:49;5.50;1.00